createdAt,value
2023-09-12T00:03:32.405Z,24.47
2023-09-12T00:08:37.639Z,24.44
2023-09-12T00:13:46.911Z,24.41
2023-09-12T00:19:04.859Z,24.40
2023-09-12T00:24:16.669Z,24.41
2023-09-12T00:29:29.144Z,24.38
2023-09-12T00:34:35.143Z,24.37
2023-09-12T00:39:43.066Z,24.35
2023-09-12T00:44:47.066Z,24.32
2023-09-12T00:49:56.342Z,24.31
2023-09-12T00:55:03.319Z,24.34
2023-09-12T01:05:27.432Z,24.29
2023-09-12T01:10:37.738Z,24.24
2023-09-12T01:15:48.779Z,24.21
2023-09-12T01:21:42.782Z,24.13
2023-09-12T01:27:04.736Z,24.08
2023-09-12T01:32:15.785Z,24.05
2023-09-12T01:37:25.036Z,24.04
2023-09-12T01:42:37.940Z,23.99
2023-09-12T01:47:41.650Z,23.98
2023-09-12T01:52:46.340Z,23.95
2023-09-12T01:58:02.006Z,23.94
2023-09-12T02:03:05.560Z,23.90
2023-09-12T02:08:09.595Z,23.90
2023-09-12T02:18:33.458Z,23.92
2023-09-12T02:23:42.804Z,23.93
2023-09-12T02:31:25.040Z,23.89
2023-09-12T02:36:38.372Z,23.88
2023-09-12T02:41:42.916Z,23.85
2023-09-12T02:46:52.846Z,23.81
2023-09-12T02:52:02.422Z,23.78
2023-09-12T02:57:11.607Z,23.76
2023-09-12T03:02:23.480Z,23.72
2023-09-12T03:07:33.092Z,23.69
2023-09-12T03:13:04.226Z,23.64
2023-09-12T03:18:13.027Z,23.61
2023-09-12T03:23:17.811Z,23.60
2023-09-12T03:28:23.811Z,23.62
2023-09-12T03:33:28.987Z,23.63
2023-09-12T03:38:37.053Z,23.61
2023-09-12T03:44:07.175Z,23.59
2023-09-12T03:49:12.057Z,23.55
2023-09-12T03:54:19.540Z,23.50
2023-09-12T03:59:28.053Z,23.44
2023-09-12T04:04:33.168Z,23.41
2023-09-12T04:09:40.153Z,23.39
2023-09-12T04:14:42.310Z,23.37
2023-09-12T04:19:44.591Z,23.32
2023-09-12T04:24:46.913Z,23.27
2023-09-12T04:29:49.108Z,23.23
2023-09-12T04:34:52.132Z,23.19
2023-09-12T04:39:54.790Z,23.17
2023-09-12T04:44:57.671Z,23.16
2023-09-12T04:50:01.295Z,23.14
2023-09-12T04:55:04.952Z,23.13
2023-09-12T05:00:08.510Z,23.15
2023-09-12T05:05:10.852Z,23.14
2023-09-12T05:10:13.570Z,23.14
2023-09-12T05:15:16.017Z,23.11
2023-09-12T05:20:18.747Z,23.10
2023-09-12T05:25:21.240Z,23.06
2023-09-12T05:30:23.810Z,22.99
2023-09-12T05:35:26.290Z,22.95
2023-09-12T05:40:29.557Z,22.92
2023-09-12T05:45:34.060Z,22.93
2023-09-12T05:50:40.675Z,22.94
2023-09-12T05:55:42.879Z,22.96
2023-09-12T06:00:45.628Z,23.00
2023-09-12T06:05:47.775Z,23.01
2023-09-12T06:10:50.187Z,23.05
2023-09-12T06:15:52.435Z,23.09
2023-09-12T06:20:54.551Z,23.12
2023-09-12T06:25:56.824Z,23.16
2023-09-12T06:30:59.931Z,23.20
2023-09-12T06:36:05.253Z,23.22
2023-09-12T06:41:07.328Z,23.25
2023-09-12T06:46:09.430Z,23.30
2023-09-12T06:51:16.731Z,23.38
2023-09-12T06:56:22.496Z,23.45
2023-09-12T07:01:25.042Z,23.57
2023-09-12T07:06:27.279Z,23.80
2023-09-12T07:11:29.553Z,24.37
2023-09-12T07:16:32.969Z,24.59
2023-09-12T07:21:35.035Z,24.52
2023-09-12T07:26:39.171Z,24.63
2023-09-12T07:31:41.347Z,25.08
2023-09-12T07:36:43.537Z,25.54
2023-09-12T07:41:45.588Z,25.99
2023-09-12T07:46:47.875Z,26.48
2023-09-12T07:51:49.997Z,26.85
2023-09-12T07:56:52.237Z,27.15
2023-09-12T08:01:54.729Z,27.38
2023-09-12T08:06:58.292Z,27.58
2023-09-12T08:12:00.940Z,27.88
2023-09-12T08:17:03.097Z,28.15
2023-09-12T08:22:06.107Z,28.26
2023-09-12T08:27:11.045Z,28.42
2023-09-12T08:32:13.633Z,28.64
2023-09-12T08:37:15.899Z,28.85
2023-09-12T08:42:18.098Z,28.89
2023-09-12T08:47:23.026Z,29.00
2023-09-12T08:52:25.425Z,29.17
2023-09-12T08:57:28.648Z,29.38
2023-09-12T09:02:31.865Z,29.53
2023-09-12T09:07:39.004Z,29.35
2023-09-12T09:12:41.763Z,28.93
2023-09-12T09:17:47.242Z,28.58
2023-09-12T09:23:00.671Z,28.40
2023-09-12T09:28:07.116Z,28.38
2023-09-12T09:33:10.084Z,28.26
2023-09-12T09:38:17.460Z,28.13
2023-09-12T09:43:23.492Z,27.91
2023-09-12T09:48:29.876Z,27.75
2023-09-12T09:53:36.071Z,27.66
2023-09-12T09:58:58.351Z,27.62
2023-09-12T10:04:02.403Z,27.51
2023-09-12T10:09:13.238Z,27.41
2023-09-12T10:14:20.240Z,27.38
2023-09-12T10:19:39.708Z,27.33
2023-09-12T10:24:44.865Z,27.27
2023-09-12T10:29:49.830Z,27.23
2023-09-12T10:34:53.796Z,27.23
2023-09-12T10:39:57.771Z,27.14
2023-09-12T10:45:02.184Z,27.37
2023-09-12T10:50:04.606Z,27.87
2023-09-12T10:55:07.795Z,28.48
2023-09-12T11:00:12.057Z,29.00
2023-09-12T11:05:30.081Z,29.03
2023-09-12T11:10:35.608Z,29.19
2023-09-12T11:15:40.818Z,29.41
2023-09-12T11:20:59.604Z,29.41
2023-09-12T11:26:08.989Z,29.55
2023-09-12T11:31:11.710Z,29.65
2023-09-12T11:36:20.609Z,29.85
2023-09-12T11:41:41.228Z,30.11
2023-09-12T11:46:44.540Z,30.36
2023-09-12T11:51:54.143Z,30.29
2023-09-12T11:57:00.885Z,30.24
2023-09-12T12:02:08.146Z,30.38
2023-09-12T12:07:11.543Z,30.65
2023-09-12T12:12:15.555Z,30.62
2023-09-12T12:17:17.775Z,30.80
2023-09-12T12:22:20.260Z,30.75
2023-09-12T12:27:22.738Z,30.92
2023-09-12T12:32:25.145Z,30.69
2023-09-12T12:37:34.332Z,30.38
2023-09-12T12:42:53.217Z,30.31
2023-09-12T12:48:01.814Z,29.96
2023-09-12T12:53:04.211Z,30.20
2023-09-12T12:58:06.473Z,30.31
2023-09-12T13:03:08.884Z,30.08
2023-09-12T13:08:11.186Z,30.04
2023-09-12T13:13:14.274Z,30.03
2023-09-12T13:18:16.453Z,30.06
2023-09-12T13:23:19.115Z,30.16
2023-09-12T13:28:21.293Z,30.09
2023-09-12T13:33:23.809Z,30.13
2023-09-12T13:38:26.501Z,30.15
2023-09-12T13:43:29.639Z,30.17
2023-09-12T13:48:31.777Z,30.00
2023-09-12T13:53:34.019Z,29.47
2023-09-12T13:58:44.238Z,29.11
2023-09-12T14:03:49.765Z,28.77
2023-09-12T14:08:54.540Z,28.60
2023-09-12T14:14:08.661Z,28.49
2023-09-12T14:19:13.464Z,28.36
2023-09-12T14:24:16.221Z,28.26
2023-09-12T14:29:18.545Z,28.14
2023-09-12T14:34:20.846Z,28.08
2023-09-12T14:39:23.637Z,27.98
2023-09-12T14:44:26.408Z,27.83
2023-09-12T14:49:29.150Z,27.67
2023-09-12T14:54:32.386Z,27.69
2023-09-12T14:59:34.596Z,27.68
2023-09-12T15:04:36.863Z,27.65
2023-09-12T15:09:39.213Z,27.54
2023-09-12T15:14:41.347Z,27.46
2023-09-12T15:19:44.155Z,27.41
2023-09-12T15:24:46.388Z,27.34
2023-09-12T15:29:48.833Z,27.27
2023-09-12T15:34:51.147Z,27.26
2023-09-12T15:39:53.232Z,27.15
2023-09-12T15:45:02.144Z,27.09
2023-09-12T15:50:08.335Z,27.10
2023-09-12T15:55:12.392Z,27.12
2023-09-12T16:00:15.837Z,27.01
2023-09-12T16:05:18.588Z,26.89
2023-09-12T16:10:21.050Z,26.88
2023-09-12T16:15:23.374Z,26.80
2023-09-12T16:20:26.012Z,26.67
2023-09-12T16:25:28.325Z,26.62
2023-09-12T16:30:30.712Z,26.59
2023-09-12T16:35:33.073Z,26.69
2023-09-12T16:40:38.121Z,26.77
2023-09-12T16:45:40.733Z,26.84
2023-09-12T16:50:42.781Z,26.78
2023-09-12T16:55:45.231Z,26.70
2023-09-12T17:00:47.690Z,26.66
2023-09-12T17:05:50.077Z,26.70
2023-09-12T17:10:52.168Z,26.74
2023-09-12T17:15:56.856Z,26.74
2023-09-12T17:20:59.020Z,26.61
2023-09-12T17:26:01.519Z,26.53
2023-09-12T17:31:04.064Z,26.47
2023-09-12T17:36:06.725Z,26.37
2023-09-12T17:41:10.207Z,26.27
2023-09-12T17:46:12.616Z,26.21
2023-09-12T17:51:14.738Z,26.18
2023-09-12T17:56:16.872Z,26.18
2023-09-12T18:01:19.299Z,26.11
2023-09-12T18:06:21.999Z,26.11
2023-09-12T18:11:25.837Z,26.07
2023-09-12T18:16:29.801Z,26.10
2023-09-12T18:21:32.314Z,26.15
2023-09-12T18:26:34.584Z,26.18
2023-09-12T18:31:36.870Z,26.20
2023-09-12T18:36:39.436Z,26.25
2023-09-12T18:41:41.772Z,26.30
2023-09-12T18:46:44.783Z,26.32
2023-09-12T18:51:48.156Z,26.34
2023-09-12T18:56:51.724Z,26.28
2023-09-12T19:01:53.811Z,26.26
2023-09-12T19:06:56.604Z,26.23
2023-09-12T19:11:59.035Z,26.23
2023-09-12T19:17:01.498Z,26.23
2023-09-12T19:22:03.914Z,26.22
2023-09-12T19:27:06.339Z,26.25
2023-09-12T19:32:08.742Z,26.27
2023-09-12T19:37:11.310Z,26.30
2023-09-12T19:42:13.611Z,26.32
2023-09-12T19:47:20.081Z,26.34
2023-09-12T19:52:24.650Z,26.31
2023-09-12T19:57:27.306Z,26.27
2023-09-12T20:02:29.441Z,26.26
2023-09-12T20:07:31.420Z,26.27
2023-09-12T20:12:33.839Z,26.24
2023-09-12T20:17:36.085Z,26.22
2023-09-12T20:22:38.243Z,26.20
2023-09-12T20:27:40.233Z,26.20
2023-09-12T20:32:57.028Z,26.19
2023-09-12T20:38:00.144Z,26.19
2023-09-12T20:43:02.601Z,26.17
2023-09-12T20:48:05.448Z,26.16
2023-09-12T20:53:08.896Z,26.14
2023-09-12T20:58:12.776Z,26.12
2023-09-12T21:03:15.033Z,26.10
2023-09-12T21:08:17.706Z,26.09
2023-09-12T21:13:19.840Z,26.07
2023-09-12T21:18:21.980Z,26.06
2023-09-12T21:23:24.198Z,26.05
2023-09-12T21:28:26.296Z,26.01
2023-09-12T21:33:28.383Z,26.00
2023-09-12T21:38:30.434Z,25.94
2023-09-12T21:43:32.989Z,25.94
2023-09-12T21:48:35.283Z,25.91
2023-09-12T21:53:37.630Z,25.87
2023-09-12T21:58:39.736Z,25.85
2023-09-12T22:03:42.317Z,25.84
2023-09-12T22:08:44.906Z,25.85
2023-09-12T22:13:47.194Z,25.85
2023-09-12T22:18:49.126Z,25.84
2023-09-12T22:23:51.867Z,25.82
2023-09-12T22:28:53.962Z,25.80
2023-09-12T22:33:56.144Z,25.77
2023-09-12T22:38:59.852Z,25.79
2023-09-12T22:44:03.084Z,25.78
2023-09-12T22:49:05.247Z,25.78
2023-09-12T22:54:07.435Z,25.80
2023-09-12T22:59:09.447Z,25.78
2023-09-12T23:04:11.738Z,25.76
2023-09-12T23:09:14.073Z,25.77
2023-09-12T23:14:16.280Z,25.76
2023-09-12T23:19:18.532Z,25.74
2023-09-12T23:24:20.842Z,25.73
2023-09-12T23:29:23.095Z,25.70
2023-09-12T23:34:25.413Z,25.66
2023-09-12T23:39:27.676Z,25.61
2023-09-12T23:44:30.234Z,25.59
2023-09-12T23:49:32.662Z,25.55
2023-09-12T23:54:35.550Z,25.52
2023-09-12T23:59:40.800Z,25.46
